createdAt,value
2023-03-11T00:00:46.766Z,15.30
2023-03-11T00:03:25.230Z,13.80
2023-03-11T00:05:53.293Z,15.00
2023-03-11T00:08:22.750Z,14.00
2023-03-11T00:10:54.793Z,14.10
2023-03-11T00:15:50.720Z,13.50
2023-03-11T00:18:18.101Z,14.90
2023-03-11T00:20:46.437Z,13.50
2023-03-11T00:23:14.390Z,14.80
2023-03-11T00:25:44.226Z,14.80
2023-03-11T00:28:11.891Z,14.30
2023-03-11T00:30:40.106Z,13.30
2023-03-11T00:33:07.168Z,13.90
2023-03-11T00:35:35.230Z,14.30
2023-03-11T00:38:06.577Z,14.20
2023-03-11T00:40:35.372Z,13.40
2023-03-11T00:43:02.824Z,13.50
2023-03-11T00:45:30.152Z,13.00
2023-03-11T00:47:57.602Z,12.80
2023-03-11T00:50:29.117Z,12.30
2023-03-11T00:52:56.744Z,12.00
2023-03-11T00:55:30.649Z,12.90
2023-03-11T00:58:01.924Z,13.30
2023-03-11T01:00:34.682Z,12.20
2023-03-11T01:03:02.780Z,14.50
2023-03-11T01:05:31.949Z,13.90
2023-03-11T01:07:59.710Z,11.80
2023-03-11T01:10:28.104Z,11.70
2023-03-11T01:12:55.342Z,11.10
2023-03-11T01:15:26.514Z,11.00
2023-03-11T01:17:53.418Z,11.80
2023-03-11T01:20:20.218Z,10.90
2023-03-11T01:22:47.294Z,11.20
2023-03-11T01:25:15.953Z,11.70
2023-03-11T01:27:43.984Z,10.20
2023-03-11T01:30:14.484Z,10.40
2023-03-11T01:32:41.593Z,9.90
2023-03-11T01:35:11.998Z,11.10
2023-03-11T01:37:38.661Z,11.80
2023-03-11T01:40:07.044Z,11.30
2023-03-11T01:42:33.724Z,10.70
2023-03-11T01:45:00.330Z,9.90
2023-03-11T01:47:36.055Z,9.80
2023-03-11T01:50:07.743Z,9.40
2023-03-11T01:52:35.225Z,9.30
2023-03-11T01:55:02.138Z,10.20
2023-03-11T01:57:29.385Z,10.30
2023-03-11T02:00:00.674Z,9.20
2023-03-11T02:02:39.931Z,6.20
2023-03-11T02:05:07.725Z,9.00
2023-03-11T02:07:34.573Z,8.70
2023-03-11T02:10:02.260Z,8.10
2023-03-11T02:12:34.828Z,15.30
2023-03-11T02:15:02.677Z,12.00
2023-03-11T02:17:31.867Z,9.10
2023-03-11T02:20:01.464Z,9.40
2023-03-11T02:22:32.912Z,12.80
2023-03-11T02:25:21.682Z,10.60
2023-03-11T02:27:52.987Z,8.40
2023-03-11T02:30:23.336Z,9.50
2023-03-11T02:32:50.687Z,9.80
2023-03-11T02:35:18.697Z,10.00
2023-03-11T02:37:47.530Z,8.40
2023-03-11T02:40:23.461Z,8.00
2023-03-11T02:43:14.353Z,8.40
2023-03-11T02:45:45.135Z,8.80
2023-03-11T02:48:14.000Z,8.40
2023-03-11T02:50:41.082Z,8.00
2023-03-11T02:53:08.421Z,8.40
2023-03-11T02:55:35.266Z,8.50
2023-03-11T02:58:01.956Z,8.30
2023-03-11T03:00:28.962Z,8.80
2023-03-11T03:03:00.430Z,8.50
2023-03-11T03:05:27.169Z,10.00
2023-03-11T03:07:54.325Z,10.90
2023-03-11T03:10:21.806Z,10.50
2023-03-11T03:12:48.583Z,12.10
2023-03-11T03:15:15.786Z,9.50
2023-03-11T03:17:43.587Z,10.00
2023-03-11T03:20:11.959Z,8.20
2023-03-11T03:22:41.609Z,8.00
2023-03-11T03:25:10.156Z,8.10
2023-03-11T03:27:37.793Z,8.00
2023-03-11T03:30:06.143Z,8.00
2023-03-11T03:32:33.548Z,7.80
2023-03-11T03:35:01.683Z,7.80
2023-03-11T03:37:40.810Z,7.00
2023-03-11T03:40:08.709Z,6.90
2023-03-11T03:42:37.406Z,6.30
2023-03-11T03:45:07.434Z,7.50
2023-03-11T03:47:34.570Z,9.00
2023-03-11T03:50:07.206Z,14.10
2023-03-11T03:52:35.289Z,8.90
2023-03-11T03:55:03.159Z,7.10
2023-03-11T03:57:29.875Z,6.70
2023-03-11T03:59:56.895Z,6.40
2023-03-11T04:02:49.188Z,6.70
2023-03-11T04:05:26.248Z,6.90
2023-03-11T04:07:54.255Z,7.70
2023-03-11T04:10:21.796Z,7.50
2023-03-11T04:12:49.255Z,6.80
2023-03-11T04:15:16.054Z,5.50
2023-03-11T04:17:43.580Z,6.10
2023-03-11T04:20:11.350Z,5.70
2023-03-11T04:22:38.142Z,5.20
2023-03-11T04:25:05.364Z,5.20
2023-03-11T04:27:32.355Z,4.90
2023-03-11T04:29:59.901Z,4.80
2023-03-11T04:34:36.455Z,4.50
2023-03-11T04:37:05.286Z,4.60
2023-03-11T04:39:34.950Z,4.90
2023-03-11T04:42:04.154Z,4.60
2023-03-11T04:44:35.958Z,5.00
2023-03-11T04:47:04.983Z,4.20
2023-03-11T04:49:33.160Z,4.60
2023-03-11T04:52:01.688Z,4.10
2023-03-11T04:54:30.442Z,4.20
2023-03-11T04:56:58.815Z,4.40
2023-03-11T04:59:27.143Z,4.70
2023-03-11T05:01:55.632Z,4.30
2023-03-11T05:04:24.187Z,4.30
2023-03-11T05:06:52.378Z,3.50
2023-03-11T05:09:20.955Z,5.00
2023-03-11T05:11:49.337Z,6.50
2023-03-11T05:14:18.652Z,4.90
2023-03-11T05:16:47.115Z,4.10
2023-03-11T05:19:36.665Z,4.10
2023-03-11T05:22:10.340Z,4.50
2023-03-11T05:24:38.946Z,4.60
2023-03-11T05:27:07.406Z,4.30
2023-03-11T05:29:36.602Z,4.70
2023-03-11T05:32:06.356Z,4.50
2023-03-11T05:34:34.685Z,4.20
2023-03-11T05:37:03.385Z,4.10
2023-03-11T05:39:32.315Z,4.30
2023-03-11T05:42:00.915Z,4.60
2023-03-11T05:44:29.248Z,4.10
2023-03-11T05:46:57.777Z,4.80
2023-03-11T05:49:26.462Z,4.00
2023-03-11T05:51:58.352Z,4.60
2023-03-11T05:54:26.885Z,4.40
2023-03-11T05:56:55.996Z,4.40
2023-03-11T05:59:24.403Z,4.20
2023-03-11T06:01:57.189Z,5.00
2023-03-11T06:04:25.546Z,5.10
2023-03-11T06:06:53.973Z,4.80
2023-03-11T06:09:24.043Z,4.90
2023-03-11T06:11:52.937Z,5.20
2023-03-11T06:14:22.490Z,5.30
2023-03-11T06:16:51.492Z,5.70
2023-03-11T06:19:20.642Z,5.20
2023-03-11T06:21:50.206Z,5.20
2023-03-11T06:24:19.247Z,5.60
2023-03-11T06:26:51.540Z,5.10
2023-03-11T06:29:24.402Z,5.60
2023-03-11T06:31:53.314Z,5.90
2023-03-11T06:34:22.007Z,5.40
2023-03-11T06:36:50.176Z,5.50
2023-03-11T06:39:18.259Z,5.50
2023-03-11T06:41:48.558Z,5.60
2023-03-11T06:44:17.618Z,5.30
2023-03-11T06:46:45.765Z,5.40
2023-03-11T06:49:14.421Z,5.80
2023-03-11T06:51:42.796Z,5.20
2023-03-11T06:54:14.639Z,5.70
2023-03-11T06:56:42.920Z,5.80
2023-03-11T06:59:11.387Z,5.20
2023-03-11T07:01:40.201Z,5.80
2023-03-11T07:04:10.583Z,5.50
2023-03-11T07:06:41.902Z,5.90
2023-03-11T07:09:14.833Z,5.90
2023-03-11T07:11:45.027Z,6.00
2023-03-11T07:14:17.243Z,5.30
2023-03-11T07:16:48.524Z,5.40
2023-03-11T07:19:33.687Z,5.00
2023-03-11T07:22:01.865Z,5.60
2023-03-11T07:24:30.271Z,5.80
2023-03-11T07:26:58.683Z,5.70
2023-03-11T07:29:26.792Z,5.70
2023-03-11T07:31:55.026Z,5.90
2023-03-11T07:34:23.379Z,5.60
2023-03-11T07:36:51.343Z,6.10
2023-03-11T07:39:20.137Z,6.40
2023-03-11T07:41:48.236Z,6.00
2023-03-11T07:44:18.270Z,6.20
2023-03-11T07:46:46.909Z,6.20
2023-03-11T07:49:15.199Z,7.10
2023-03-11T07:51:44.153Z,6.70
2023-03-11T07:54:13.715Z,7.30
2023-03-11T07:56:42.198Z,7.80
2023-03-11T07:59:10.680Z,7.30
2023-03-11T08:01:41.509Z,8.10
2023-03-11T08:04:14.430Z,8.20
2023-03-11T08:06:45.844Z,7.70
2023-03-11T08:09:14.325Z,8.10
2023-03-11T08:11:43.302Z,9.10
2023-03-11T08:14:11.732Z,10.90
2023-03-11T08:16:41.211Z,11.20
2023-03-11T08:19:12.275Z,10.10
2023-03-11T08:21:40.390Z,10.50
2023-03-11T08:24:11.954Z,9.90
2023-03-11T08:26:40.730Z,10.50
2023-03-11T08:29:08.941Z,9.70
2023-03-11T08:31:37.179Z,9.90
2023-03-11T08:34:08.619Z,10.20
2023-03-11T08:36:37.219Z,10.20
2023-03-11T08:39:05.776Z,9.90
2023-03-11T08:41:34.188Z,9.50
2023-03-11T08:44:02.594Z,9.80
2023-03-11T08:46:39.286Z,9.70
2023-03-11T08:49:07.493Z,8.90
2023-03-11T08:51:36.186Z,9.30
2023-03-11T08:54:05.210Z,9.50
2023-03-11T08:56:33.929Z,9.20
2023-03-11T08:59:02.330Z,9.50
2023-03-11T09:01:30.630Z,9.50
2023-03-11T09:03:58.904Z,9.40
2023-03-11T09:06:27.204Z,9.70
2023-03-11T09:08:55.435Z,8.30
2023-03-11T09:11:23.965Z,8.60
2023-03-11T09:13:52.298Z,8.10
2023-03-11T09:16:23.883Z,6.70
2023-03-11T09:18:52.095Z,5.90
2023-03-11T09:21:20.869Z,6.50
2023-03-11T09:23:49.466Z,6.10
2023-03-11T09:26:17.493Z,6.70
2023-03-11T09:28:49.152Z,6.80
2023-03-11T09:31:18.427Z,7.20
2023-03-11T09:33:47.552Z,8.60
2023-03-11T09:36:20.821Z,12.00
2023-03-11T09:38:49.551Z,17.00
2023-03-11T09:41:17.614Z,18.30
2023-03-11T09:44:10.381Z,19.30
2023-03-11T09:46:57.689Z,17.30
2023-03-11T09:49:42.670Z,15.60
2023-03-11T09:52:39.835Z,15.70
2023-03-11T09:55:24.837Z,15.40
2023-03-11T09:57:55.727Z,14.40
2023-03-11T10:00:25.176Z,13.70
2023-03-11T10:02:53.901Z,12.00
2023-03-11T10:05:26.954Z,11.70
2023-03-11T10:08:04.964Z,10.20
2023-03-11T10:10:43.810Z,9.80
2023-03-11T10:13:29.384Z,7.60
2023-03-11T10:16:25.046Z,6.10
2023-03-11T10:18:59.175Z,5.80
2023-03-11T10:21:36.535Z,5.60
2023-03-11T10:24:19.150Z,5.80
2023-03-11T10:26:56.957Z,5.80
2023-03-11T10:29:44.352Z,5.20
2023-03-11T10:32:21.866Z,7.00
2023-03-11T10:34:58.454Z,7.20
2023-03-11T10:37:46.541Z,6.60
2023-03-11T10:40:43.601Z,6.20
2023-03-11T10:43:17.906Z,6.40
2023-03-11T10:45:48.712Z,6.40
2023-03-11T10:48:20.250Z,6.00
2023-03-11T10:50:54.547Z,6.30
2023-03-11T10:53:24.426Z,6.80
2023-03-11T10:55:55.275Z,7.40
2023-03-11T10:58:29.656Z,7.10
2023-03-11T11:04:40.772Z,7.30
2023-03-11T11:07:32.446Z,7.20
2023-03-11T11:10:29.748Z,6.80
2023-03-11T11:13:04.052Z,6.70
2023-03-11T11:15:34.414Z,7.80
2023-03-11T11:18:15.567Z,7.10
2023-03-11T11:21:32.322Z,5.50
2023-03-11T11:24:13.959Z,4.60
2023-03-11T11:26:42.372Z,5.60
2023-03-11T11:29:12.398Z,5.50
2023-03-11T11:31:46.029Z,5.50
2023-03-11T11:34:25.289Z,5.60
2023-03-11T11:36:54.532Z,5.90
2023-03-11T11:39:26.025Z,6.10
2023-03-11T11:41:56.316Z,6.10
2023-03-11T11:44:33.806Z,5.90
2023-03-11T11:47:16.950Z,6.20
2023-03-11T11:49:57.056Z,6.30
2023-03-11T11:52:35.380Z,6.30
2023-03-11T11:55:20.505Z,6.30
2023-03-11T11:57:49.294Z,5.90
2023-03-11T12:00:31.199Z,6.30
2023-03-11T12:03:10.295Z,6.60
2023-03-11T12:05:58.116Z,6.60
2023-03-11T12:08:35.109Z,6.80
2023-03-11T12:11:08.979Z,7.10
2023-03-11T12:14:21.671Z,6.70
2023-03-11T12:19:46.105Z,7.10
2023-03-11T12:22:34.278Z,7.20
2023-03-11T12:25:05.409Z,7.00
2023-03-11T12:27:45.520Z,7.30
2023-03-11T12:30:23.639Z,7.60
2023-03-11T12:32:59.184Z,6.90
2023-03-11T12:35:35.488Z,7.30
2023-03-11T12:38:17.609Z,8.00
2023-03-11T12:40:59.216Z,7.70
2023-03-11T12:43:33.938Z,8.10
2023-03-11T12:46:04.495Z,7.20
2023-03-11T12:48:53.470Z,7.40
2023-03-11T12:51:27.671Z,7.80
2023-03-11T12:53:57.357Z,7.60
2023-03-11T12:56:41.619Z,8.00
2023-03-11T12:59:36.433Z,8.50
2023-03-11T13:02:09.722Z,7.40
2023-03-11T13:04:51.716Z,7.30
2023-03-11T13:07:22.562Z,7.60
2023-03-11T13:10:21.751Z,7.70
2023-03-11T13:12:53.676Z,7.80
2023-03-11T13:15:21.723Z,7.90
2023-03-11T13:18:24.231Z,8.20
2023-03-11T13:21:03.024Z,8.10
2023-03-11T13:23:35.520Z,7.80
2023-03-11T13:26:35.908Z,8.10
2023-03-11T13:29:41.564Z,7.80
2023-03-11T13:32:53.601Z,8.40
2023-03-11T13:35:45.486Z,7.70
2023-03-11T13:38:40.260Z,8.10
2023-03-11T13:41:22.417Z,7.50
2023-03-11T13:43:52.716Z,7.90
2023-03-11T13:46:27.338Z,7.30
2023-03-11T13:49:05.874Z,7.00
2023-03-11T13:51:45.671Z,7.40
2023-03-11T13:54:20.265Z,8.10
2023-03-11T13:56:59.882Z,8.60
2023-03-11T13:59:34.827Z,8.10
2023-03-11T14:02:06.869Z,9.10
2023-03-11T14:04:38.022Z,9.40
2023-03-11T14:07:23.939Z,8.70
2023-03-11T14:09:52.767Z,8.70
2023-03-11T14:12:20.793Z,9.10
2023-03-11T14:14:59.094Z,8.80
2023-03-11T14:17:27.350Z,7.80
2023-03-11T14:20:08.191Z,8.20
2023-03-11T14:22:38.132Z,7.50
2023-03-11T14:25:11.165Z,8.20
2023-03-11T14:27:39.676Z,7.90
2023-03-11T14:30:20.265Z,7.30
2023-03-11T14:33:06.495Z,8.20
2023-03-11T14:35:34.806Z,6.80
2023-03-11T14:38:02.880Z,7.30
2023-03-11T14:40:34.442Z,6.80
2023-03-11T14:43:08.644Z,6.50
2023-03-11T14:45:40.535Z,6.50
2023-03-11T14:50:52.518Z,6.50
2023-03-11T14:53:25.261Z,6.30
2023-03-11T14:55:59.467Z,6.10
2023-03-11T14:58:37.356Z,6.30
2023-03-11T15:01:21.624Z,6.10
2023-03-11T15:04:01.451Z,5.70
2023-03-11T15:06:31.108Z,5.20
2023-03-11T15:09:08.369Z,5.60
2023-03-11T15:11:52.397Z,5.10
2023-03-11T15:14:33.656Z,4.90
2023-03-11T15:17:33.115Z,4.80
2023-03-11T15:20:02.610Z,4.60
2023-03-11T15:22:37.249Z,5.20
2023-03-11T15:25:17.815Z,5.40
2023-03-11T15:27:46.569Z,5.00
2023-03-11T15:30:22.628Z,4.70
2023-03-11T15:32:52.638Z,5.00
2023-03-11T15:35:42.702Z,6.00
2023-03-11T15:38:25.457Z,5.40
2023-03-11T15:41:03.103Z,5.10
2023-03-11T15:43:47.709Z,4.60
2023-03-11T15:46:16.076Z,5.30
2023-03-11T15:48:44.581Z,5.10
2023-03-11T15:51:20.780Z,5.50
2023-03-11T15:53:49.110Z,5.40
2023-03-11T15:56:25.152Z,5.40
2023-03-11T15:58:54.873Z,4.90
2023-03-11T16:01:28.600Z,5.50
2023-03-11T16:03:57.198Z,5.20
2023-03-11T16:06:26.312Z,5.30
2023-03-11T16:08:57.952Z,4.80
2023-03-11T16:11:28.152Z,5.00
2023-03-11T16:13:57.332Z,4.90
2023-03-11T16:16:28.087Z,4.20
2023-03-11T16:18:57.105Z,4.70
2023-03-11T16:21:33.633Z,4.90
2023-03-11T16:24:01.964Z,5.10
2023-03-11T16:26:31.272Z,5.60
2023-03-11T16:29:16.666Z,5.80
2023-03-11T16:31:47.455Z,5.50
2023-03-11T16:34:16.523Z,5.40
2023-03-11T16:36:45.009Z,5.20
2023-03-11T16:39:14.677Z,5.00
2023-03-11T16:41:46.079Z,5.30
2023-03-11T16:44:19.734Z,4.70
2023-03-11T16:46:49.002Z,4.90
2023-03-11T16:49:18.833Z,5.00
2023-03-11T16:51:47.903Z,4.20
2023-03-11T16:54:17.019Z,4.80
2023-03-11T16:56:45.465Z,4.60
2023-03-11T16:59:16.106Z,5.10
2023-03-11T17:01:45.243Z,5.00
2023-03-11T17:04:16.888Z,5.50
2023-03-11T17:06:47.373Z,5.80
2023-03-11T17:09:17.345Z,4.80
2023-03-11T17:11:45.661Z,5.40
2023-03-11T17:14:16.831Z,5.80
2023-03-11T17:16:45.401Z,5.70
2023-03-11T17:19:13.596Z,5.30
2023-03-11T17:21:41.911Z,5.50
2023-03-11T17:24:12.378Z,5.90
2023-03-11T17:26:40.683Z,5.90
2023-03-11T17:29:08.715Z,6.40
2023-03-11T17:31:37.782Z,7.80
2023-03-11T17:34:05.890Z,6.60
2023-03-11T17:36:34.364Z,6.50
2023-03-11T17:39:03.210Z,6.90
2023-03-11T17:41:31.267Z,6.20
2023-03-11T17:43:59.252Z,6.60
2023-03-11T17:46:27.727Z,5.80
2023-03-11T17:48:55.720Z,5.20
2023-03-11T17:51:26.262Z,5.70
2023-03-11T17:53:55.817Z,5.10
2023-03-11T17:56:24.183Z,5.50
2023-03-11T17:58:52.555Z,5.40
2023-03-11T18:01:23.432Z,5.10
2023-03-11T18:03:52.093Z,4.80
2023-03-11T18:06:21.784Z,4.70
2023-03-11T18:08:50.863Z,4.60
2023-03-11T18:11:22.591Z,4.40
2023-03-11T18:13:51.540Z,3.90
2023-03-11T18:16:22.495Z,4.40
2023-03-11T18:18:52.016Z,4.20
2023-03-11T18:21:23.106Z,3.90
2023-03-11T18:23:59.418Z,4.10
2023-03-11T18:26:29.514Z,4.30
2023-03-11T18:28:59.062Z,4.20
2023-03-11T18:31:29.508Z,4.00
2023-03-11T18:34:01.026Z,4.00
2023-03-11T18:36:32.810Z,3.40
2023-03-11T18:39:01.757Z,3.60
2023-03-11T18:41:32.980Z,3.50
2023-03-11T18:44:02.835Z,3.20
2023-03-11T18:46:32.708Z,3.40
2023-03-11T18:49:03.861Z,3.30
2023-03-11T18:51:32.621Z,3.40
2023-03-11T18:54:01.679Z,3.20
2023-03-11T18:56:33.188Z,4.10
2023-03-11T18:59:14.203Z,3.20
2023-03-11T19:04:37.293Z,3.70
2023-03-11T19:07:05.708Z,4.10
2023-03-11T19:09:34.140Z,4.00
2023-03-11T19:12:02.454Z,3.80
2023-03-11T19:14:30.580Z,4.30
2023-03-11T19:16:58.991Z,4.10
2023-03-11T19:19:27.139Z,4.10
2023-03-11T19:21:55.096Z,4.20
2023-03-11T19:24:23.258Z,4.10
2023-03-11T19:26:51.254Z,4.30
2023-03-11T19:29:19.797Z,4.30
2023-03-11T19:31:48.035Z,4.40
2023-03-11T19:34:16.239Z,3.50
2023-03-11T19:36:47.250Z,6.90
2023-03-11T19:39:15.715Z,4.70
2023-03-11T19:41:43.810Z,4.10
2023-03-11T19:44:11.888Z,4.20
2023-03-11T19:46:40.289Z,4.50
2023-03-11T19:49:08.379Z,5.10
2023-03-11T19:51:49.092Z,5.20
2023-03-11T19:54:19.459Z,3.60
2023-03-11T19:56:48.578Z,4.70
2023-03-11T19:59:17.813Z,4.90
2023-03-11T20:01:47.036Z,4.80
2023-03-11T20:04:15.465Z,5.30
2023-03-11T20:06:45.021Z,5.10
2023-03-11T20:09:15.847Z,4.80
2023-03-11T20:11:45.891Z,4.50
2023-03-11T20:14:14.601Z,4.90
2023-03-11T20:16:43.202Z,5.20
2023-03-11T20:19:12.040Z,5.00
2023-03-11T20:21:40.984Z,4.60
2023-03-11T20:24:10.395Z,4.90
2023-03-11T20:26:38.981Z,5.60
2023-03-11T20:29:07.645Z,4.80
2023-03-11T20:31:36.641Z,4.90
2023-03-11T20:34:05.549Z,5.40
2023-03-11T20:36:34.214Z,5.60
2023-03-11T20:39:04.277Z,5.50
2023-03-11T20:41:38.700Z,5.80
2023-03-11T20:44:08.809Z,5.00
2023-03-11T20:46:37.405Z,5.20
2023-03-11T20:49:06.367Z,6.40
2023-03-11T20:51:34.766Z,6.50
2023-03-11T20:54:03.105Z,6.70
2023-03-11T20:56:51.213Z,5.40
2023-03-11T20:59:19.801Z,5.50
2023-03-11T21:01:49.384Z,5.00
2023-03-11T21:04:17.838Z,5.80
2023-03-11T21:07:07.901Z,5.20
2023-03-11T21:09:44.810Z,5.40
2023-03-11T21:12:12.852Z,6.30
2023-03-11T21:14:41.729Z,6.10
2023-03-11T21:17:10.329Z,6.50
2023-03-11T21:19:38.747Z,5.90
2023-03-11T21:22:06.945Z,6.40
2023-03-11T21:24:35.337Z,6.20
2023-03-11T21:27:03.754Z,6.70
2023-03-11T21:29:31.941Z,6.40
2023-03-11T21:32:00.163Z,5.60
2023-03-11T21:34:28.499Z,6.10
2023-03-11T21:36:56.580Z,6.30
2023-03-11T21:39:25.960Z,5.60
2023-03-11T21:41:56.866Z,5.90
2023-03-11T21:44:25.253Z,4.70
2023-03-11T21:46:53.966Z,6.30
2023-03-11T21:49:22.519Z,6.60
2023-03-11T21:51:50.857Z,5.40
2023-03-11T21:54:19.197Z,6.20
2023-03-11T21:56:47.804Z,6.20
2023-03-11T21:59:17.371Z,6.80
2023-03-11T22:01:45.814Z,6.10
2023-03-11T22:04:14.069Z,6.10
2023-03-11T22:06:42.528Z,5.50
2023-03-11T22:09:11.304Z,5.80
2023-03-11T22:11:43.545Z,5.10
2023-03-11T22:14:11.758Z,6.20
2023-03-11T22:16:40.742Z,5.60
2023-03-11T22:19:10.134Z,6.00
2023-03-11T22:21:38.224Z,5.50
2023-03-11T22:24:06.499Z,6.00
2023-03-11T22:26:35.371Z,5.90
2023-03-11T22:29:07.216Z,5.40
2023-03-11T22:31:37.075Z,5.70
2023-03-11T22:34:05.194Z,5.70
2023-03-11T22:36:33.395Z,5.60
2023-03-11T22:39:04.487Z,5.80
2023-03-11T22:41:34.236Z,5.60
2023-03-11T22:44:02.416Z,6.00
2023-03-11T22:46:30.464Z,6.10
2023-03-11T22:48:59.535Z,5.70
2023-03-11T22:51:27.645Z,5.70
2023-03-11T22:53:55.721Z,5.90
2023-03-11T22:56:24.825Z,6.60
2023-03-11T22:58:54.620Z,6.60
2023-03-11T23:01:23.522Z,6.90
2023-03-11T23:03:51.658Z,6.00
2023-03-11T23:06:21.237Z,6.40
2023-03-11T23:08:49.312Z,5.80
2023-03-11T23:11:21.313Z,5.50
2023-03-11T23:13:50.126Z,6.00
2023-03-11T23:16:21.708Z,6.00
2023-03-11T23:18:57.115Z,6.00
2023-03-11T23:21:32.033Z,6.90
2023-03-11T23:24:01.835Z,6.40
2023-03-11T23:26:30.588Z,6.10
2023-03-11T23:29:01.034Z,6.50
2023-03-11T23:31:30.153Z,6.80
2023-03-11T23:33:58.974Z,7.30
2023-03-11T23:36:30.356Z,6.70
2023-03-11T23:39:00.733Z,7.80
2023-03-11T23:41:29.313Z,7.60
2023-03-11T23:43:57.572Z,7.10
2023-03-11T23:46:25.663Z,8.10
2023-03-11T23:48:54.072Z,7.50
2023-03-11T23:51:22.263Z,7.80
2023-03-11T23:53:51.318Z,7.70
2023-03-11T23:56:19.665Z,8.30
2023-03-11T23:58:48.117Z,7.90
